sensor_id;sensor_type;location;lat;lon;timestamp;pressure;altitude;pressure_sealevel;temperature;humidity
56334;BME280;42240;53.626;55.886;2022-08-23T00:00:00;75888.50;;;-145.10;73.26
56334;BME280;42240;53.626;55.886;2022-08-23T00:01:45;75890.47;;;-145.10;72.98
56334;BME280;42240;53.626;55.886;2022-08-23T00:03:22;75902.34;;;-145.10;73.05
56334;BME280;42240;53.626;55.886;2022-08-23T00:04:56;75906.28;;;-145.10;73.64
56334;BME280;42240;53.626;55.886;2022-08-23T00:06:41;75914.19;;;-145.10;74.11
56334;BME280;42240;53.626;55.886;2022-08-23T00:08:15;75916.19;;;-145.10;74.26
56334;BME280;42240;53.626;55.886;2022-08-23T00:09:48;75914.19;;;-145.10;74.49
56334;BME280;42240;53.626;55.886;2022-08-23T00:11:26;75928.03;;;-145.10;74.83
56334;BME280;42240;53.626;55.886;2022-08-23T00:13:00;75933.97;;;-145.10;75.01
56334;BME280;42240;53.626;55.886;2022-08-23T00:14:35;75928.03;;;-145.10;74.96
56334;BME280;42240;53.626;55.886;2022-08-23T00:16:09;75935.94;;;-145.10;75.28
56334;BME280;42240;53.626;55.886;2022-08-23T00:17:47;75935.94;;;-145.10;75.10
56334;BME280;42240;53.626;55.886;2022-08-23T00:19:21;75939.91;;;-145.10;74.48
56334;BME280;42240;53.626;55.886;2022-08-23T00:20:55;75947.81;;;-145.10;75.19
56334;BME280;42240;53.626;55.886;2022-08-23T00:22:34;75947.81;;;-145.10;75.21
56334;BME280;42240;53.626;55.886;2022-08-23T00:24:12;75943.88;;;-145.10;75.37
56334;BME280;42240;53.626;55.886;2022-08-23T00:25:47;75941.88;;;-145.10;75.47
56334;BME280;42240;53.626;55.886;2022-08-23T00:27:23;75955.72;;;-145.10;75.22
56334;BME280;42240;53.626;55.886;2022-08-23T00:28:57;75955.72;;;-145.10;75.30
56334;BME280;42240;53.626;55.886;2022-08-23T00:30:31;75959.69;;;-145.10;75.46
56334;BME280;42240;53.626;55.886;2022-08-23T00:32:07;75963.63;;;-145.10;75.78
56334;BME280;42240;53.626;55.886;2022-08-23T00:33:50;75965.59;;;-145.10;75.57
56334;BME280;42240;53.626;55.886;2022-08-23T00:35:24;75967.59;;;-145.10;75.47
56334;BME280;42240;53.626;55.886;2022-08-23T00:36:59;75965.59;;;-145.10;75.54
56334;BME280;42240;53.626;55.886;2022-08-23T00:38:32;75961.66;;;-145.10;75.20
56334;BME280;42240;53.626;55.886;2022-08-23T00:40:07;75965.59;;;-145.10;75.24
56334;BME280;42240;53.626;55.886;2022-08-23T00:41:42;75969.56;;;-145.10;75.13
56334;BME280;42240;53.626;55.886;2022-08-23T00:43:16;75975.50;;;-145.10;75.81
56334;BME280;42240;53.626;55.886;2022-08-23T00:45:10;75969.56;;;-145.10;75.36
56334;BME280;42240;53.626;55.886;2022-08-23T00:47:03;75975.50;;;-145.10;75.08
56334;BME280;42240;53.626;55.886;2022-08-23T00:48:57;75975.50;;;-145.10;75.44
56334;BME280;42240;53.626;55.886;2022-08-23T00:52:07;75983.41;;;-145.10;75.62
56334;BME280;42240;53.626;55.886;2022-08-23T00:53:47;75977.47;;;-145.10;75.47
56334;BME280;42240;53.626;55.886;2022-08-23T00:55:22;75979.44;;;-145.10;75.10
56334;BME280;42240;53.626;55.886;2022-08-23T00:56:57;75975.50;;;-145.10;74.65
56334;BME280;42240;53.626;55.886;2022-08-23T00:58:31;75977.47;;;-145.10;75.20
56334;BME280;42240;53.626;55.886;2022-08-23T01:00:08;75979.44;;;-145.10;74.97
56334;BME280;42240;53.626;55.886;2022-08-23T01:01:42;75979.44;;;-145.10;75.11
56334;BME280;42240;53.626;55.886;2022-08-23T01:03:19;75997.25;;;-145.10;75.67
56334;BME280;42240;53.626;55.886;2022-08-23T01:04:55;76001.19;;;-145.10;75.90
56334;BME280;42240;53.626;55.886;2022-08-23T01:06:32;76007.13;;;-145.10;75.93
56334;BME280;42240;53.626;55.886;2022-08-23T01:08:07;76015.03;;;-145.10;76.02
56334;BME280;42240;53.626;55.886;2022-08-23T01:09:41;76017.00;;;-145.10;76.25
56334;BME280;42240;53.626;55.886;2022-08-23T01:11:21;76032.84;;;-145.10;76.69
56334;BME280;42240;53.626;55.886;2022-08-23T01:12:59;76030.84;;;-145.10;76.70
56334;BME280;42240;53.626;55.886;2022-08-23T01:14:37;76034.81;;;-145.10;77.49
56334;BME280;42240;53.626;55.886;2022-08-23T01:16:15;76046.66;;;-145.10;77.43
56334;BME280;42240;53.626;55.886;2022-08-23T01:17:53;76038.75;;;-145.10;77.70
56334;BME280;42240;53.626;55.886;2022-08-23T01:20:06;76036.78;;;-145.10;77.29
56334;BME280;42240;53.626;55.886;2022-08-23T01:21:39;76036.78;;;-145.10;77.15
56334;BME280;42240;53.626;55.886;2022-08-23T01:25:06;76009.09;;;-145.10;76.93
56334;BME280;42240;53.626;55.886;2022-08-23T01:26:46;75983.41;;;-145.10;76.45
56334;BME280;42240;53.626;55.886;2022-08-23T01:28:20;75959.69;;;-145.10;75.50
56334;BME280;42240;53.626;55.886;2022-08-23T01:29:53;75930.03;;;-145.10;74.65
56334;BME280;42240;53.626;55.886;2022-08-23T01:31:27;75916.19;;;-145.10;73.88
56334;BME280;42240;53.626;55.886;2022-08-23T01:33:04;75912.22;;;-145.10;73.35
56334;BME280;42240;53.626;55.886;2022-08-23T01:34:39;75926.06;;;-145.10;73.20
56334;BME280;42240;53.626;55.886;2022-08-23T01:36:24;75969.56;;;-145.10;73.74
56334;BME280;42240;53.626;55.886;2022-08-23T01:37:58;76019.00;;;-145.10;75.09
56334;BME280;42240;53.626;55.886;2022-08-23T01:39:33;76030.84;;;-145.10;75.55
56334;BME280;42240;53.626;55.886;2022-08-23T01:41:08;76054.56;;;-145.10;76.58
56334;BME280;42240;53.626;55.886;2022-08-23T01:42:42;76058.53;;;-145.10;77.11
56334;BME280;42240;53.626;55.886;2022-08-23T01:44:17;76070.41;;;-145.10;77.68
56334;BME280;42240;53.626;55.886;2022-08-23T01:45:54;76064.47;;;-145.10;77.78
56334;BME280;42240;53.626;55.886;2022-08-23T01:47:29;76082.25;;;-145.10;78.36
56334;BME280;42240;53.626;55.886;2022-08-23T01:49:04;76074.34;;;-145.10;78.50
56334;BME280;42240;53.626;55.886;2022-08-23T01:50:41;76019.00;;;-145.10;77.77
56334;BME280;42240;53.626;55.886;2022-08-23T01:52:14;75951.78;;;-145.10;75.92
56334;BME280;42240;53.626;55.886;2022-08-23T01:53:49;75906.28;;;-145.10;74.25
56334;BME280;42240;53.626;55.886;2022-08-23T01:55:28;75878.63;;;-145.10;73.27
56334;BME280;42240;53.626;55.886;2022-08-23T01:57:01;75874.66;;;-145.10;72.92
56334;BME280;42240;53.626;55.886;2022-08-23T01:58:35;75813.38;;;-145.10;72.08
56334;BME280;42240;53.626;55.886;2022-08-23T02:00:09;75732.31;;;-145.10;69.79
56334;BME280;42240;53.626;55.886;2022-08-23T02:01:44;75714.53;;;-145.10;68.13
56334;BME280;42240;53.626;55.886;2022-08-23T02:03:20;75649.28;;;-145.10;66.76
56334;BME280;42240;53.626;55.886;2022-08-23T02:04:54;75619.63;;;-145.10;65.22
56334;BME280;42240;53.626;55.886;2022-08-23T02:06:28;75601.84;;;-145.10;64.13
56334;BME280;42240;53.626;55.886;2022-08-23T02:08:03;75588.00;;;-145.10;63.52
56334;BME280;42240;53.626;55.886;2022-08-23T02:09:58;75586.03;;;-145.10;62.55
56334;BME280;42240;53.626;55.886;2022-08-23T02:11:35;75552.41;;;-145.10;61.79
56334;BME280;42240;53.626;55.886;2022-08-23T02:13:09;75516.84;;;-145.10;60.63
56334;BME280;42240;53.626;55.886;2022-08-23T02:14:43;75469.38;;;-145.10;60.32
56334;BME280;42240;53.626;55.886;2022-08-23T02:16:25;75445.66;;;-145.10;59.03
56334;BME280;42240;53.626;55.886;2022-08-23T02:18:00;75437.75;;;-145.10;58.09
56334;BME280;42240;53.626;55.886;2022-08-23T02:19:34;75421.94;;;-145.10;58.03
56334;BME280;42240;53.626;55.886;2022-08-23T02:21:08;75380.44;;;-145.10;57.17
56334;BME280;42240;53.626;55.886;2022-08-23T02:22:42;75323.09;;;-145.10;56.16
56334;BME280;42240;53.626;55.886;2022-08-23T02:24:17;75323.09;;;-145.10;55.55
56334;BME280;42240;53.626;55.886;2022-08-23T02:25:51;75244.03;;;-145.10;55.08
56334;BME280;42240;53.626;55.886;2022-08-23T02:27:25;75220.31;;;-145.10;54.21
56334;BME280;42240;53.626;55.886;2022-08-23T02:29:00;75164.97;;;-145.10;52.74
56334;BME280;42240;53.626;55.886;2022-08-23T02:30:34;75121.47;;;-145.10;51.96
56334;BME280;42240;53.626;55.886;2022-08-23T02:32:08;75093.81;;;-145.10;51.18
56334;BME280;42240;53.626;55.886;2022-08-23T02:33:43;75068.09;;;-145.10;49.91
56334;BME280;42240;53.626;55.886;2022-08-23T02:35:17;75036.47;;;-145.10;49.67
56334;BME280;42240;53.626;55.886;2022-08-23T02:36:50;75002.88;;;-145.10;48.79
56334;BME280;42240;53.626;55.886;2022-08-23T02:38:24;74991.03;;;-145.10;48.79
56334;BME280;42240;53.626;55.886;2022-08-23T02:39:58;74939.63;;;-145.10;47.72
56334;BME280;42240;53.626;55.886;2022-08-23T02:41:34;74933.69;;;-145.10;47.20
56334;BME280;42240;53.626;55.886;2022-08-23T02:43:12;74939.63;;;-145.10;46.84
56334;BME280;42240;53.626;55.886;2022-08-23T02:44:45;74896.16;;;-145.10;46.80
56334;BME280;42240;53.626;55.886;2022-08-23T02:46:20;74858.59;;;-145.10;46.13
56334;BME280;42240;53.626;55.886;2022-08-23T02:47:56;74832.91;;;-145.10;45.24
56334;BME280;42240;53.626;55.886;2022-08-23T02:49:35;74803.25;;;-145.10;44.52
56334;BME280;42240;53.626;55.886;2022-08-23T02:51:08;74741.97;;;-145.10;44.32
56334;BME280;42240;53.626;55.886;2022-08-23T02:52:42;74741.97;;;-145.10;43.38
56334;BME280;42240;53.626;55.886;2022-08-23T02:54:15;74722.22;;;-145.10;43.23
56334;BME280;42240;53.626;55.886;2022-08-23T02:55:48;74698.50;;;-145.10;42.56
56334;BME280;42240;53.626;55.886;2022-08-23T02:57:22;74627.34;;;-145.10;41.73
56334;BME280;42240;53.626;55.886;2022-08-23T02:58:58;74609.56;;;-145.10;41.61
56334;BME280;42240;53.626;55.886;2022-08-23T03:00:32;74611.53;;;-145.10;40.71
56334;BME280;42240;53.626;55.886;2022-08-23T03:02:07;74552.25;;;-145.10;40.72
56334;BME280;42240;53.626;55.886;2022-08-23T03:03:44;74572.00;;;-145.10;40.16
56334;BME280;42240;53.626;55.886;2022-08-23T03:05:18;74540.38;;;-145.10;40.02
56334;BME280;42240;53.626;55.886;2022-08-23T03:06:52;74528.53;;;-145.10;39.31
56334;BME280;42240;53.626;55.886;2022-08-23T03:08:25;74516.66;;;-145.10;39.46
56334;BME280;42240;53.626;55.886;2022-08-23T03:09:59;74477.13;;;-145.10;38.36
56334;BME280;42240;53.626;55.886;2022-08-23T03:11:35;74490.97;;;-145.10;38.47
56334;BME280;42240;53.626;55.886;2022-08-23T03:13:12;74479.13;;;-145.10;38.68
56334;BME280;42240;53.626;55.886;2022-08-23T03:14:47;74492.94;;;-145.10;38.63
56334;BME280;42240;53.626;55.886;2022-08-23T03:16:20;74437.63;;;-145.10;38.01
56334;BME280;42240;53.626;55.886;2022-08-23T03:17:54;74433.66;;;-145.10;37.68
56334;BME280;42240;53.626;55.886;2022-08-23T03:19:27;74433.66;;;-145.10;37.86
56334;BME280;42240;53.626;55.886;2022-08-23T03:21:00;74461.31;;;-145.10;37.21
56334;BME280;42240;53.626;55.886;2022-08-23T03:22:34;74427.72;;;-145.10;37.41
56334;BME280;42240;53.626;55.886;2022-08-23T03:24:07;74449.47;;;-145.10;36.55
56334;BME280;42240;53.626;55.886;2022-08-23T03:25:43;74437.63;;;-145.10;36.94
56334;BME280;42240;53.626;55.886;2022-08-23T03:27:29;74384.25;;;-145.10;36.23
56334;BME280;42240;53.626;55.886;2022-08-23T03:29:12;74372.41;;;-145.10;36.75
56334;BME280;42240;53.626;55.886;2022-08-23T03:31:15;74370.41;;;-145.10;35.80
56334;BME280;42240;53.626;55.886;2022-08-23T03:33:04;74378.31;;;-145.10;36.63
56334;BME280;42240;53.626;55.886;2022-08-23T03:34:38;74415.88;;;-145.10;36.18
56334;BME280;42240;53.626;55.886;2022-08-23T03:36:13;74406.00;;;-145.10;36.32
56334;BME280;42240;53.626;55.886;2022-08-23T03:37:47;74348.69;;;-145.10;36.73
56334;BME280;42240;53.626;55.886;2022-08-23T03:39:29;74283.47;;;-145.10;35.63
56334;BME280;42240;53.626;55.886;2022-08-23T03:41:04;74238.00;;;-145.10;34.92
56334;BME280;42240;53.626;55.886;2022-08-23T03:42:38;74253.81;;;-145.10;34.38
56334;BME280;42240;53.626;55.886;2022-08-23T03:44:14;74232.06;;;-145.10;34.19
56334;BME280;42240;53.626;55.886;2022-08-23T03:45:52;74151.06;;;-145.10;34.44
56334;BME280;42240;53.626;55.886;2022-08-23T03:47:26;74182.69;;;-145.10;33.60
56334;BME280;42240;53.626;55.886;2022-08-23T03:49:01;74253.81;;;-145.10;34.15
56334;BME280;42240;53.626;55.886;2022-08-23T03:50:46;74311.13;;;-145.10;34.77
56334;BME280;42240;53.626;55.886;2022-08-23T03:52:20;74263.69;;;-145.10;35.10
56334;BME280;42240;53.626;55.886;2022-08-23T03:53:53;74224.19;;;-145.10;34.26
56334;BME280;42240;53.626;55.886;2022-08-23T03:55:27;74247.88;;;-145.10;34.83
56334;BME280;42240;53.626;55.886;2022-08-23T03:57:04;74261.72;;;-145.10;34.67
56334;BME280;42240;53.626;55.886;2022-08-23T03:58:39;74129.31;;;-145.10;33.82
56334;BME280;42240;53.626;55.886;2022-08-23T04:00:15;74072.00;;;-145.10;33.31
56334;BME280;42240;53.626;55.886;2022-08-23T04:01:55;74168.84;;;-145.10;33.43
56334;BME280;42240;53.626;55.886;2022-08-23T04:03:28;74066.06;;;-145.10;33.12
56334;BME280;42240;53.626;55.886;2022-08-23T04:05:09;74123.38;;;-145.10;33.24
56334;BME280;42240;53.626;55.886;2022-08-23T04:06:55;74200.47;;;-145.10;33.50
56334;BME280;42240;53.626;55.886;2022-08-23T04:08:28;74239.97;;;-145.10;33.37
56334;BME280;42240;53.626;55.886;2022-08-23T04:10:08;74125.38;;;-145.10;33.31
56334;BME280;42240;53.626;55.886;2022-08-23T04:11:46;74271.59;;;-145.10;34.24
56334;BME280;42240;53.626;55.886;2022-08-23T04:13:23;74149.06;;;-145.10;33.22
56334;BME280;42240;53.626;55.886;2022-08-23T04:14:58;74109.56;;;-145.10;32.74
56334;BME280;42240;53.626;55.886;2022-08-23T04:16:39;74311.13;;;-145.10;33.65
56334;BME280;42240;53.626;55.886;2022-08-23T04:18:14;74243.94;;;-145.10;34.04
56334;BME280;42240;53.626;55.886;2022-08-23T04:19:47;74234.06;;;-145.10;33.90
56334;BME280;42240;53.626;55.886;2022-08-23T04:21:23;74322.97;;;-145.10;34.54
56334;BME280;42240;53.626;55.886;2022-08-23T04:22:56;74255.78;;;-145.10;34.05
56334;BME280;42240;53.626;55.886;2022-08-23T04:24:33;74188.59;;;-145.10;33.43
56334;BME280;42240;53.626;55.886;2022-08-23T04:26:06;74156.97;;;-145.10;33.12
56334;BME280;42240;53.626;55.886;2022-08-23T04:27:42;74133.28;;;-145.10;32.55
56334;BME280;42240;53.626;55.886;2022-08-23T04:29:15;74097.69;;;-145.10;32.70
56334;BME280;42240;53.626;55.886;2022-08-23T04:31:08;74050.28;;;-145.10;32.27
56334;BME280;42240;53.626;55.886;2022-08-23T04:32:46;74079.91;;;-145.10;32.07
56334;BME280;42240;53.626;55.886;2022-08-23T04:34:20;74190.56;;;-145.10;32.80
56334;BME280;42240;53.626;55.886;2022-08-23T04:36:00;74062.13;;;-145.10;32.67
56334;BME280;42240;53.626;55.886;2022-08-23T04:37:34;74119.44;;;-145.10;32.30
56334;BME280;42240;53.626;55.886;2022-08-23T04:39:08;74068.06;;;-145.10;31.92
56334;BME280;42240;53.626;55.886;2022-08-23T04:40:43;74026.56;;;-145.10;31.49
56334;BME280;42240;53.626;55.886;2022-08-23T04:42:42;73943.56;;;-145.10;31.19
56334;BME280;42240;53.626;55.886;2022-08-23T04:44:17;73957.41;;;-145.10;31.64
56334;BME280;42240;53.626;55.886;2022-08-23T04:45:53;73994.94;;;-145.10;31.19
56334;BME280;42240;53.626;55.886;2022-08-23T04:47:37;73894.16;;;-145.10;30.61
56334;BME280;42240;53.626;55.886;2022-08-23T04:49:14;74024.59;;;-145.10;31.57
56334;BME280;42240;53.626;55.886;2022-08-23T04:50:50;73981.09;;;-145.10;31.21
56334;BME280;42240;53.626;55.886;2022-08-23T04:52:24;73864.50;;;-145.10;30.83
56334;BME280;42240;53.626;55.886;2022-08-23T04:53:59;73769.66;;;-145.10;30.77
56334;BME280;42240;53.626;55.886;2022-08-23T04:55:46;73913.91;;;-145.10;30.57
56334;BME280;42240;53.626;55.886;2022-08-23T04:57:21;73830.94;;;-145.10;30.36
56334;BME280;42240;53.626;55.886;2022-08-23T04:58:54;74014.69;;;-145.10;30.97
56334;BME280;42240;53.626;55.886;2022-08-23T05:00:34;74006.78;;;-145.10;30.88
56334;BME280;42240;53.626;55.886;2022-08-23T05:02:09;74081.88;;;-145.10;31.58
56334;BME280;42240;53.626;55.886;2022-08-23T05:03:42;74050.28;;;-145.10;31.91
56334;BME280;42240;53.626;55.886;2022-08-23T05:05:19;73987.03;;;-145.10;31.35
56334;BME280;42240;53.626;55.886;2022-08-23T05:06:56;73931.69;;;-145.10;31.13
56334;BME280;42240;53.626;55.886;2022-08-23T05:08:33;73909.97;;;-145.10;30.63
56334;BME280;42240;53.626;55.886;2022-08-23T05:10:10;73909.97;;;-145.10;30.11
56334;BME280;42240;53.626;55.886;2022-08-23T05:11:48;73939.59;;;-145.10;30.40
56334;BME280;42240;53.626;55.886;2022-08-23T05:13:22;73908.00;;;-145.10;30.12
56334;BME280;42240;53.626;55.886;2022-08-23T05:14:58;73904.03;;;-145.10;29.82
56334;BME280;42240;53.626;55.886;2022-08-23T05:16:32;73880.31;;;-145.10;30.12
56334;BME280;42240;53.626;55.886;2022-08-23T05:18:13;73925.78;;;-145.10;30.35
56334;BME280;42240;53.626;55.886;2022-08-23T05:19:48;73911.94;;;-145.10;30.52
56334;BME280;42240;53.626;55.886;2022-08-23T05:21:24;73852.66;;;-145.10;30.07
56334;BME280;42240;53.626;55.886;2022-08-23T05:22:59;73738.06;;;-145.10;29.79
56334;BME280;42240;53.626;55.886;2022-08-23T05:24:37;73793.38;;;-145.10;28.84
56334;BME280;42240;53.626;55.886;2022-08-23T05:26:12;73799.31;;;-145.10;28.70
56334;BME280;42240;53.626;55.886;2022-08-23T05:27:46;73777.56;;;-145.10;29.03
56334;BME280;42240;53.626;55.886;2022-08-23T05:29:19;73785.47;;;-145.10;29.01
56334;BME280;42240;53.626;55.886;2022-08-23T05:31:07;73868.47;;;-145.10;29.35
56334;BME280;42240;53.626;55.886;2022-08-23T05:32:50;73994.94;;;-145.10;30.15
56334;BME280;42240;53.626;55.886;2022-08-23T05:34:24;73947.50;;;-145.10;30.19
56334;BME280;42240;53.626;55.886;2022-08-23T05:36:00;74010.75;;;-145.10;30.66
56334;BME280;42240;53.626;55.886;2022-08-23T05:37:37;73955.41;;;-145.10;30.07
56334;BME280;42240;53.626;55.886;2022-08-23T05:39:11;73949.50;;;-145.10;30.38
56334;BME280;42240;53.626;55.886;2022-08-23T05:40:57;73878.34;;;-145.10;29.93
56334;BME280;42240;53.626;55.886;2022-08-23T05:42:31;73898.09;;;-145.10;29.80
56334;BME280;42240;53.626;55.886;2022-08-23T05:44:08;73884.28;;;-145.10;29.85
56334;BME280;42240;53.626;55.886;2022-08-23T05:46:09;73923.78;;;-145.10;30.11
56334;BME280;42240;53.626;55.886;2022-08-23T05:47:48;73941.59;;;-145.10;30.09
56334;BME280;42240;53.626;55.886;2022-08-23T05:49:41;73787.44;;;-145.10;29.82
56334;BME280;42240;53.626;55.886;2022-08-23T05:51:23;73714.34;;;-145.10;29.58
56334;BME280;42240;53.626;55.886;2022-08-23T05:53:04;73757.81;;;-145.10;29.10
56334;BME280;42240;53.626;55.886;2022-08-23T05:54:38;73793.38;;;-145.10;29.40
56334;BME280;42240;53.626;55.886;2022-08-23T05:56:44;73830.94;;;-145.10;29.71
56334;BME280;42240;53.626;55.886;2022-08-23T05:58:20;73801.28;;;-145.10;29.54
56334;BME280;42240;53.626;55.886;2022-08-23T05:59:55;73830.94;;;-145.10;29.40
56334;BME280;42240;53.626;55.886;2022-08-23T06:01:28;73856.63;;;-145.10;29.73
56334;BME280;42240;53.626;55.886;2022-08-23T06:03:07;73767.69;;;-145.10;29.89
56334;BME280;42240;53.626;55.886;2022-08-23T06:04:43;73801.28;;;-145.10;29.38
56334;BME280;42240;53.626;55.886;2022-08-23T06:06:17;73734.09;;;-145.10;28.77
56334;BME280;42240;53.626;55.886;2022-08-23T06:07:51;73761.75;;;-145.10;29.33
56334;BME280;42240;53.626;55.886;2022-08-23T06:09:27;73864.50;;;-145.10;29.34
56334;BME280;42240;53.626;55.886;2022-08-23T06:11:09;73779.53;;;-145.10;29.58
56334;BME280;42240;53.626;55.886;2022-08-23T06:12:47;73832.91;;;-145.10;29.41
56334;BME280;42240;53.626;55.886;2022-08-23T06:14:21;73866.50;;;-145.10;29.26
56334;BME280;42240;53.626;55.886;2022-08-23T06:15:55;73836.84;;;-145.10;29.40
56334;BME280;42240;53.626;55.886;2022-08-23T06:17:29;73872.41;;;-145.10;29.67
56334;BME280;42240;53.626;55.886;2022-08-23T06:19:05;73909.97;;;-145.10;29.59
56334;BME280;42240;53.626;55.886;2022-08-23T06:21:03;73959.38;;;-145.10;29.67
56334;BME280;42240;53.626;55.886;2022-08-23T06:22:46;74038.41;;;-145.10;29.98
56334;BME280;42240;53.626;55.886;2022-08-23T06:24:22;73943.56;;;-145.10;30.12
56334;BME280;42240;53.626;55.886;2022-08-23T06:26:12;73860.56;;;-145.10;29.37
56334;BME280;42240;53.626;55.886;2022-08-23T06:27:48;74028.53;;;-145.10;29.33
56334;BME280;42240;53.626;55.886;2022-08-23T06:29:21;74119.44;;;-145.10;29.86
56334;BME280;42240;53.626;55.886;2022-08-23T06:31:12;74204.41;;;-145.10;30.92
56334;BME280;42240;53.626;55.886;2022-08-23T06:33:00;74196.50;;;-145.10;31.19
56334;BME280;42240;53.626;55.886;2022-08-23T06:34:36;74194.53;;;-145.10;31.04
56334;BME280;42240;53.626;55.886;2022-08-23T06:36:26;74133.28;;;-145.10;31.03
56334;BME280;42240;53.626;55.886;2022-08-23T06:38:22;74139.19;;;-145.10;31.22
56334;BME280;42240;53.626;55.886;2022-08-23T06:40:21;74241.97;;;-145.10;32.15
56334;BME280;42240;53.626;55.886;2022-08-23T06:42:12;74239.97;;;-145.10;32.66
56334;BME280;42240;53.626;55.886;2022-08-23T06:44:08;74232.06;;;-145.10;32.96
56334;BME280;42240;53.626;55.886;2022-08-23T06:47:45;74245.91;;;-145.10;33.01
56334;BME280;42240;53.626;55.886;2022-08-23T06:49:18;74243.94;;;-145.10;33.24
56334;BME280;42240;53.626;55.886;2022-08-23T06:50:54;74239.97;;;-145.10;33.25
56334;BME280;42240;53.626;55.886;2022-08-23T06:52:50;74259.75;;;-145.10;33.65
56334;BME280;42240;53.626;55.886;2022-08-23T06:54:37;74220.22;;;-145.10;33.55
56334;BME280;42240;53.626;55.886;2022-08-23T06:56:30;74224.19;;;-145.10;33.76
56334;BME280;42240;53.626;55.886;2022-08-23T06:58:10;74192.56;;;-145.10;33.39
56334;BME280;42240;53.626;55.886;2022-08-23T07:00:03;74295.31;;;-145.10;33.22
56334;BME280;42240;53.626;55.886;2022-08-23T07:01:49;74319.03;;;-145.10;33.67
56334;BME280;42240;53.626;55.886;2022-08-23T07:03:29;74352.63;;;-145.10;33.96
56334;BME280;42240;53.626;55.886;2022-08-23T07:05:39;74356.59;;;-145.10;34.32
56334;BME280;42240;53.626;55.886;2022-08-23T07:07:24;74360.53;;;-145.10;34.87
56334;BME280;42240;53.626;55.886;2022-08-23T07:09:17;74411.91;;;-145.10;34.80
56334;BME280;42240;53.626;55.886;2022-08-23T07:10:50;74409.94;;;-145.10;35.11
56334;BME280;42240;53.626;55.886;2022-08-23T07:12:23;74386.22;;;-145.10;35.27
56334;BME280;42240;53.626;55.886;2022-08-23T07:13:57;74409.94;;;-145.10;34.86
56334;BME280;42240;53.626;55.886;2022-08-23T07:15:32;74413.91;;;-145.10;35.23
56334;BME280;42240;53.626;55.886;2022-08-23T07:17:10;74417.84;;;-145.10;34.73
56334;BME280;42240;53.626;55.886;2022-08-23T07:18:45;74388.19;;;-145.10;34.80
56334;BME280;42240;53.626;55.886;2022-08-23T07:20:18;74453.41;;;-145.10;34.76
56334;BME280;42240;53.626;55.886;2022-08-23T07:21:52;74439.59;;;-145.10;35.12
56334;BME280;42240;53.626;55.886;2022-08-23T07:23:26;74429.72;;;-145.10;35.10
56334;BME280;42240;53.626;55.886;2022-08-23T07:25:00;74439.59;;;-145.10;35.01
56334;BME280;42240;53.626;55.886;2022-08-23T07:26:37;74394.13;;;-145.10;34.51
56334;BME280;42240;53.626;55.886;2022-08-23T07:28:12;74413.91;;;-145.10;34.10
56334;BME280;42240;53.626;55.886;2022-08-23T07:29:46;74409.94;;;-145.10;34.11
56334;BME280;42240;53.626;55.886;2022-08-23T07:31:22;74431.69;;;-145.10;34.16
56334;BME280;42240;53.626;55.886;2022-08-23T07:32:56;74435.63;;;-145.10;34.32
56334;BME280;42240;53.626;55.886;2022-08-23T07:34:33;74433.66;;;-145.10;34.71
56334;BME280;42240;53.626;55.886;2022-08-23T07:36:07;74441.56;;;-145.10;34.39
56334;BME280;42240;53.626;55.886;2022-08-23T07:37:42;74447.50;;;-145.10;34.44
56334;BME280;42240;53.626;55.886;2022-08-23T07:39:16;74407.97;;;-145.10;34.19
56334;BME280;42240;53.626;55.886;2022-08-23T07:40:52;74394.13;;;-145.10;33.67
56334;BME280;42240;53.626;55.886;2022-08-23T07:42:27;74376.34;;;-145.10;33.64
56334;BME280;42240;53.626;55.886;2022-08-23T07:44:01;74406.00;;;-145.10;33.83
56334;BME280;42240;53.626;55.886;2022-08-23T07:45:37;74407.97;;;-145.10;34.08
56334;BME280;42240;53.626;55.886;2022-08-23T07:47:14;74431.69;;;-145.10;34.33
56334;BME280;42240;53.626;55.886;2022-08-23T07:48:48;74437.63;;;-145.10;34.23
56334;BME280;42240;53.626;55.886;2022-08-23T07:50:31;74394.13;;;-145.10;33.67
56334;BME280;42240;53.626;55.886;2022-08-23T07:52:07;74386.22;;;-145.10;33.34
56334;BME280;42240;53.626;55.886;2022-08-23T07:53:43;74334.84;;;-145.10;33.47
56334;BME280;42240;53.626;55.886;2022-08-23T07:55:22;74352.63;;;-145.10;32.98
56334;BME280;42240;53.626;55.886;2022-08-23T07:56:58;74334.84;;;-145.10;33.08
56334;BME280;42240;53.626;55.886;2022-08-23T07:59:10;74315.09;;;-145.10;32.88
56334;BME280;42240;53.626;55.886;2022-08-23T08:01:08;74307.19;;;-145.10;32.27
56334;BME280;42240;53.626;55.886;2022-08-23T08:02:50;74319.03;;;-145.10;32.50
56334;BME280;42240;53.626;55.886;2022-08-23T08:04:34;74324.97;;;-145.10;33.16
56334;BME280;42240;53.626;55.886;2022-08-23T08:06:15;74259.75;;;-145.10;33.20
56334;BME280;42240;53.626;55.886;2022-08-23T08:07:49;74259.75;;;-145.10;32.63
56334;BME280;42240;53.626;55.886;2022-08-23T08:09:23;74303.22;;;-145.10;32.36
56334;BME280;42240;53.626;55.886;2022-08-23T08:10:57;74281.47;;;-145.10;32.45
56334;BME280;42240;53.626;55.886;2022-08-23T08:12:30;74267.66;;;-145.10;31.85
56334;BME280;42240;53.626;55.886;2022-08-23T08:14:15;74283.47;;;-145.10;31.92
56334;BME280;42240;53.626;55.886;2022-08-23T08:15:56;74291.38;;;-145.10;32.15
56334;BME280;42240;53.626;55.886;2022-08-23T08:17:32;74275.56;;;-145.10;31.51
56334;BME280;42240;53.626;55.886;2022-08-23T08:19:28;74303.22;;;-145.10;31.67
56334;BME280;42240;53.626;55.886;2022-08-23T08:21:31;74315.09;;;-145.10;31.58
56334;BME280;42240;53.626;55.886;2022-08-23T08:23:16;74330.88;;;-145.10;31.39
56334;BME280;42240;53.626;55.886;2022-08-23T08:25:24;74299.28;;;-145.10;30.89